x

9440910 - Toke Point, Wa (tokw1) Weather Station

11:00 - Sun 29th May 2016 All times are PDT. -7 hours from GMT.

  • Wind
    3mph, 6mph gusts
  • Sea Temp 59°f
  • Air Temp 53°f
  • Sea Pressure 1025.2mb
  • 9440910 - Toke Point, Wa
  • 9440910 - Toke Point, Wa

More Historic Weather Station data

Upgrade to MSW Pro to gain access to the past 30 days of data for over 8000 Wavebouys and Weather Stations around the globe.

Join Pro

Comparision Forecast

View Surf forecast
   
dim. 05/29 11:00 3 6 mph 1025.2mb 59f 53f
10:54 3 6 mph 1025.2mb 59f 53f
10:48  -  mph 1025.2mb 59f 53f
10:42  -  mph 1025.2mb 59f 53f
10:36  -  mph 1025.2mb 59f 53f
10:30 5 8 mph 1025.3mb 59f 53f
10:24 6 8 mph 1025.3mb 59f 53f
10:18 3 7 mph 1025.2mb 59f 54f
10:12 6 7 mph 1025.2mb 59f 54f
10:06 2 7 mph 1025.1mb 59f 54f
10:00 5 6 mph 1025mb 59f 54f
9:54 5 8 mph 1024.9mb 59f 54f
9:48 7 13 mph 1024.9mb 59f 54f
9:42 8 13 mph 1024.8mb 59f 54f
9:36 7 10 mph 1024.7mb 59f 54f
9:30 9 13 mph 1024.6mb 58f 54f
9:24 9 13 mph 1024.5mb 58f 54f
9:18 10 13 mph 1024.4mb 58f 54f
9:12 9 11 mph 1024.4mb 58f 54f
9:06 11 14 mph 1024.3mb 58f 54f
9:00 9 13 mph 1024.3mb 59f 54f
8:54 9 11 mph 1024.4mb 59f 55f
8:48  -  mph 1024.4mb 59f 55f
8:42  -  mph 1024.4mb 59f 55f
8:36  -  mph 1024.4mb 60f 55f
8:30 13 15 mph 1024.4mb 60f 55f
8:24 13 16 mph 1024.3mb 59f 55f
8:18  -  mph 1024.3mb 59f 56f
8:12  -  mph 1024.3mb 59f 56f
8:06  -  mph 1024.3mb 58f 56f
8:00  -  mph - 58f 56f
7:54  -  mph - 58f 56f
7:48 11 17 mph 1024.2mb 58f -
7:42 15 20 mph 1024.2mb 58f -
7:36 13 15 mph 1024.1mb 58f -
7:30  -  mph 1024.1mb - -
7:24  -  mph 1024.1mb - -
7:18  -  mph - 59f -
7:12  -  mph - 58f -
7:06  -  mph - 59f -
7:00  -  mph - 59f 56f
6:54  -  mph - 58f 57f
6:48 17 21 mph 1023.9mb 58f 57f
6:42 17 18 mph 1023.8mb 58f 56f
6:36 14 18 mph 1023.8mb 58f 57f
6:30  -  mph 1023.8mb - -
6:24  -  mph 1023.8mb - -
6:18  -  mph - 59f 57f
6:12  -  mph - 59f 57f
6:06  -  mph - 59f 57f
6:00  -  mph 1023.8mb 59f -
5:54  -  mph 1023.8mb 59f -
5:48  -  mph 1023.8mb 59f -
5:42  -  mph 1023.8mb 59f -
5:36  -  mph 1023.9mb 59f -
5:30  -  mph 1023.8mb - -
5:24  -  mph 1023.8mb - -
5:18  -  mph - 59f 57f
5:12  -  mph - 59f 58f
5:06  -  mph - 59f 57f
5:00  -  mph 1023.7mb 59f 57f
4:54  -  mph 1023.7mb 59f 57f
4:48  -  mph 1023.7mb 59f -
4:42  -  mph 1023.7mb 59f -
4:36  -  mph 1023.6mb 59f -
4:30 17 18 mph - - -
4:24 15 20 mph - - -
4:18  -  mph - 59f 58f
4:12  -  mph - 59f 57f
4:06  -  mph - 59f 57f
4:00  -  mph 1023.7mb 60f -
3:54  -  mph 1023.7mb 60f -
3:48  -  mph - 60f -
3:42  -  mph - 59f -
3:36  -  mph - 59f -
3:30 15 20 mph 1023.8mb - -
3:24 15 18 mph 1023.7mb - -
3:18 15 20 mph 1023.6mb 60f 58f
3:12 18 21 mph 1023.6mb 59f 57f
3:06 17 22 mph 1023.6mb 60f 58f
3:00  -  mph - 60f -
2:54  -  mph - 60f -
2:48  -  mph - 60f -
2:42  -  mph - 60f -
2:36  -  mph - 60f -
2:30 14 21 mph 1023.4mb 60f 58f
2:24 14 21 mph 1023.4mb 60f 58f
2:18 16 20 mph 1023.3mb 60f 58f
2:12 14 20 mph 1023.3mb 60f 58f
2:06 15 20 mph 1023.3mb 61f 58f
2:00 13 18 mph 1023.2mb 60f 58f
1:54 11 20 mph 1023.2mb 60f 58f
1:48 14 18 mph 1023.1mb 61f 58f
1:42 14 18 mph 1023.1mb 62f 58f
1:36 16 20 mph 1023.1mb 61f 58f
1:30 16 20 mph 1023.1mb 60f 58f
1:24 14 20 mph 1023.1mb 60f 58f
1:18 15 18 mph 1022.9mb 60f 58f
1:12 15 20 mph 1022.9mb 62f 57f
1:06 14 20 mph 1022.8mb 62f 58f
1:00 11 17 mph 1022.8mb 62f 58f
12:54 11 16 mph 1022.8mb 61f 58f
12:48 13 17 mph 1022.8mb 61f 58f
12:42 16 18 mph 1022.7mb 61f 57f
12:36 15 18 mph 1022.7mb 60f 57f
12:30 13 20 mph 1022.7mb 60f 57f
12:24 14 20 mph 1022.5mb 60f 57f
12:18 11 16 mph 1022.4mb 59f 57f
12:12 14 20 mph 1022.4mb 60f 57f
12:06 13 17 mph 1022.4mb 60f 58f
12:00 14 20 mph 1022.3mb 60f 57f
11:54 8 16 mph 1022.2mb 59f 57f
11:48 9 15 mph 1022.2mb 59f 57f
11:42 6 11 mph 1022.1mb 59f 57f
11:36 9 13 mph 1022.1mb 59f 57f
11:30 9 14 mph 1022mb 59f 57f
11:24 7 14 mph 1022mb 59f 57f
11:18 9 13 mph 1022mb 59f 57f
11:12 7 14 mph 1022mb 58f 56f
11:06 9 15 mph 1021.9mb 58f 56f
11:00 8 10 mph 1021.9mb 58f 56f
10:54 7 10 mph 1021.8mb 58f 56f
10:48 6 9 mph 1021.8mb 58f 56f
10:42 7 8 mph 1021.8mb 58f 56f
10:36 2 6 mph 1021.8mb 58f 56f
10:30 3 8 mph 1021.8mb 58f 55f
10:24 9 10 mph 1021.7mb 57f 55f
10:18 9 13 mph 1021.7mb 57f 55f
10:12 10 13 mph 1021.7mb 57f 55f
10:06 13 15 mph 1021.6mb 57f 55f
10:00 11 14 mph 1021.5mb 57f 55f
9:54 9 11 mph 1021.5mb 57f 55f
9:48 8 10 mph 1021.5mb 57f 55f
9:42 7 10 mph 1021.4mb 57f 55f
9:36 6 10 mph 1021.3mb 57f 55f
9:30 5 11 mph 1021.3mb 57f 55f
9:24 8 10 mph 1021.2mb 57f 55f
9:18 6 8 mph 1021.2mb 57f 55f
9:12 7 9 mph 1021.2mb 57f 55f
9:06 8 9 mph 1021.1mb 57f 55f
9:00 3 6 mph 1021mb 57f 55f
8:54 5 7 mph 1021mb 57f 55f
8:48 5 6 mph 1021mb 57f 55f
8:42 2 5 mph 1020.9mb 57f 54f
8:36 2 5 mph 1020.9mb 57f 54f
8:30 2 5 mph 1020.8mb 57f 54f
8:24 3 6 mph 1020.7mb 57f 54f
8:18 3
mph
1020.7mb 57f 54f
8:12 3 5 mph 1020.7mb 57f 54f
8:06 2 6 mph 1020.5mb 57f 54f
8:00 5 6 mph 1020.6mb 57f 54f
7:54 3 5 mph 1020.5mb 57f 54f
7:48 2 3 mph 1020.4mb 57f 54f
7:42 3 5 mph 1020.4mb 57f 53f
7:36 5 6 mph 1020.3mb 57f 53f
7:30 3 5 mph 1020.3mb 57f 53f
7:24 2 5 mph 1020.2mb 57f 53f
7:18 3 5 mph 1020.1mb 57f 53f
7:12 3 6 mph 1020.1mb 57f 53f
7:06 5 6 mph 1020mb 57f 53f
7:00 5 6 mph 1020mb 57f 53f
6:54 6 7 mph 1019.9mb 57f 53f
6:48 5 6 mph 1019.8mb 57f 53f
6:42 6 7 mph 1019.7mb 57f 53f
6:36 6 7 mph 1019.6mb 57f 52f
6:30 6 7 mph 1019.5mb 57f 52f
6:24 7 10 mph 1019.5mb 57f 52f
6:18 9 11 mph 1019.5mb 57f 52f
6:12 10 14 mph 1019.5mb 57f 52f
6:06 11 14 mph 1019.4mb 57f 53f
6:00 9 11 mph 1019.4mb 57f 53f
5:54 10 14 mph 1019.3mb 57f 53f
5:48 10 13 mph 1019.2mb 57f 53f
5:42 11 13 mph 1019.1mb 57f 54f
5:36 11 13 mph 1019.1mb 57f 53f
5:30 11 15 mph 1019mb 57f 53f
5:24 10 14 mph 1019mb 57f 54f
5:18 11 14 mph 1018.9mb 57f 54f
5:12 6 8 mph 1018.8mb 57f 54f
5:06 5 9 mph 1018.8mb 57f 54f
5:00 7 9 mph 1018.8mb 57f 55f
4:54 6 9 mph 1018.7mb 57f 55f
4:48 8 9 mph 1018.7mb 57f 55f
4:42 5 7 mph 1018.7mb 57f 55f
4:36 5 9 mph 1018.7mb 57f 54f
4:30 6 9 mph 1018.7mb 57f 54f
4:24 7 9 mph 1018.6mb 57f 55f
4:18 7 9 mph 1018.6mb 57f 55f
4:12 6 8 mph 1018.5mb 57f 55f
4:06 7 8 mph 1018.5mb 57f 55f
4:00 6 8 mph 1018.5mb 57f 55f
3:54 6 8 mph 1018.6mb 57f 55f
3:48 6 7 mph 1018.5mb 57f 55f
3:42 5 6 mph 1018.5mb 57f 54f
3:36 5 7 mph 1018.5mb 57f 54f
3:30 5 6 mph 1018.5mb 57f 54f
3:24 5 6 mph 1018.5mb 57f 54f
3:18 5 6 mph 1018.6mb 57f 54f
3:12 5 6 mph 1018.5mb 57f 54f
3:06 5 6 mph 1018.5mb 57f 54f
3:00 5 7 mph 1018.5mb 57f 54f
2:54 6 7 mph 1018.5mb 57f 54f
2:48 6 8 mph 1018.5mb 57f 54f
2:42 6 8 mph 1018.5mb 57f 54f
2:36 6 8 mph 1018.4mb 57f 54f
2:30 6 8 mph 1018.4mb 57f 54f
2:24 7 9 mph 1018.4mb 57f 54f
2:18 7 10 mph 1018.4mb 57f 54f
2:12 7 8 mph 1018.4mb 57f 54f
2:06 8 11 mph 1018.5mb 57f 54f
2:00 8 11 mph 1018.5mb 57f 54f
1:54 8 10 mph 1018.4mb 57f 54f
1:48 7 11 mph 1018.5mb 57f 55f
1:42 9 11 mph 1018.4mb 57f 55f
1:36 8 10 mph 1018.4mb 57f 55f
1:30 8 13 mph 1018.4mb 57f 55f
1:24 8 10 mph 1018.3mb 57f 55f
1:18 8 10 mph 1018.3mb 57f 55f
1:12 7 10 mph 1018.2mb 57f 55f
1:06 7 8 mph 1018.2mb 57f 55f
1:00 7 10 mph 1018.2mb 57f 55f
12:54 8 10 mph 1018.2mb 57f 55f
12:48 7 9 mph 1018.3mb 57f 55f
12:42 6 7 mph 1018.3mb 57f 55f
12:36 6 7 mph 1018.3mb 57f 55f
12:30 5 7 mph 1018.3mb 57f 55f
12:24 5 7 mph 1018.3mb 57f 55f
12:18 6 8 mph 1018.4mb 57f 55f
12:12 6 8 mph 1018.4mb 57f 55f
12:06 5 8 mph 1018.4mb 57f 55f
12:00 6 9 mph 1018.4mb 57f 55f
sam. 05/28 11:54 7 9 mph 1018.4mb 57f 55f
11:48 6 7 mph 1018.4mb 57f 55f
11:42 5 7 mph 1018.3mb 57f 55f
11:36 5 6 mph 1018.3mb 57f 55f
11:30 5 6 mph 1018.3mb 57f 55f
11:24 3 6 mph 1018.3mb 57f 55f
11:18 3 6 mph 1018.3mb 57f 55f
11:12 5 6 mph 1018.3mb 57f 55f
11:06 5 6 mph 1018.3mb 57f 55f
11:00 5 6 mph 1018.3mb 57f 55f
10:54 3 6 mph 1018.3mb 57f 55f
10:48  -  mph 1018.2mb 57f 55f
10:42  -  mph 1018.2mb 57f 55f
10:36  -  mph 1018.1mb 57f 55f
10:30 3 5 mph 1018.1mb 57f 54f
10:24 5 7 mph 1018.1mb 57f 55f
10:18 6 8 mph 1018.1mb 57f 55f
10:12 6 10 mph 1018.1mb 57f 55f
10:06 7 9 mph 1018mb 57f 55f
10:00 8 9 mph 1018mb 57f 55f
9:54 8 11 mph 1018mb 57f 55f
9:48 10 13 mph 1017.9mb 57f 54f
9:42 10 13 mph 1017.9mb 57f 54f
9:36 8 11 mph 1017.9mb 57f 55f
9:30 9 11 mph 1017.9mb 57f 54f
9:24 8 10 mph 1017.9mb 57f 54f
9:18 8 10 mph 1017.9mb 57f 55f
9:12 9 13 mph 1017.8mb 57f 55f
9:06 10 13 mph 1017.8mb 57f 55f
9:00 8 10 mph 1017.7mb 57f 55f
8:54 6 8 mph 1017.7mb 57f 55f
8:48 8 10 mph 1017.7mb 57f 55f
8:42 9 15 mph 1017.7mb 57f 55f
8:36 14 18 mph 1017.6mb 57f 55f
8:30 10 15 mph 1017.6mb 57f 55f
8:24 11 16 mph 1017.5mb 57f 55f
8:18  -  mph 1017.5mb 57f 55f
8:12  -  mph 1017.5mb 57f 55f
8:06  -  mph 1017.5mb 57f 55f
8:00  -  mph 1017.5mb 57f 55f
7:54  -  mph 1017.5mb 57f 55f
7:48 11 18 mph - 57f -
7:42 15 20 mph - 57f -
7:36 15 21 mph - 57f -
7:30 13 20 mph 1017.4mb - -
7:24 14 17 mph 1017.4mb - -
7:18  -  mph 1017.4mb 57f 55f
7:12  -  mph 1017.4mb 57f 55f
7:06  -  mph 1017.4mb 57f 55f
7:00  -  mph 1017.4mb - -
6:54  -  mph 1017.4mb - -
6:48  -  mph - 56f 55f
6:42  -  mph - 56f 55f
6:36  -  mph - 56f 55f
6:30 16 21 mph - - -
6:24 16 21 mph - - -
6:18  -  mph 1017.2mb 56f 55f
6:12  -  mph 1017.2mb 57f 55f
6:06  -  mph 1017.3mb 57f 55f
6:00  -  mph 1017.3mb - 55f
5:54  -  mph 1017.3mb - 55f
5:48  -  mph - 57f 55f
5:42  -  mph - 57f 55f
5:36  -  mph - 57f 55f
5:30 15 22 mph - - -
5:24 15 21 mph - - -
5:18  -  mph 1017.6mb 57f -
5:12  -  mph 1017.7mb 57f -
5:06  -  mph 1017.8mb 57f -
5:00 14 18 mph - - -
4:54 14 21 mph - - -
4:48  -  mph 1018mb - -
4:42  -  mph 1018mb - -
4:36  -  mph 1018.1mb - -
4:30 18 21 mph 1018.1mb - -
4:24 16 20 mph 1018.2mb - -
4:18  -  mph - 57f 53f
4:12  -  mph - 57f 53f
4:06  -  mph - 57f 53f
4:00 18 22 mph - - 53f
3:54 18 22 mph - - 53f
3:48  -  mph 1018.4mb - -
3:42  -  mph 1018.4mb - -
3:36  -  mph 1018.5mb - -
3:30  -  mph 1018.6mb 57f 53f
3:24  -  mph 1018.6mb 58f 54f
3:18  -  mph 1018.7mb 57f 54f
3:12  -  mph 1018.7mb 57f 54f
3:06  -  mph 1018.7mb 58f 54f
3:00 15 24 mph - - -
2:54 17 22 mph - - -
2:48  -  mph 1018.5mb 58f 55f
2:42  -  mph 1018.5mb 58f 55f
2:36  -  mph 1018.5mb 58f 56f
2:30 17 24 mph 1018.4mb 58f 55f
2:24 20 26 mph 1018.4mb 58f 56f
2:18 18 25 mph 1018.3mb 58f 56f
2:12 15 23 mph 1018.4mb 58f 56f
2:06 18 25 mph 1018.5mb 58f 56f
2:00 14 23 mph 1018.4mb 58f 56f
1:54 15 22 mph 1018.5mb 58f 56f
1:48 13 20 mph 1018.5mb 58f 55f
1:42 16 23 mph 1018.5mb 58f 55f
1:36 15 22 mph 1018.5mb 58f 55f
1:30 14 20 mph 1018.5mb 58f 56f
1:24 16 24 mph 1018.6mb 58f 56f
1:18 14 18 mph 1018.6mb 58f 55f
1:12 11 22 mph 1018.7mb 58f 55f
1:06 16 20 mph 1018.7mb 58f 55f
1:00 13 21 mph 1018.7mb 58f 55f
12:54 16 22 mph 1018.7mb 58f 54f
12:48 14 22 mph 1018.7mb 58f 54f
12:42 11 18 mph 1018.8mb 58f 55f
12:36 13 21 mph 1018.8mb 58f 55f
12:30 13 22 mph 1018.9mb 58f 54f
12:24 16 22 mph 1018.8mb 58f 55f
12:18 18 23 mph 1018.7mb 58f 55f
12:12 16 21 mph 1018.8mb 58f 55f
12:06 17 23 mph 1018.8mb 58f 55f
12:00 16 23 mph 1018.9mb 58f 55f
11:54 15 20 mph 1018.8mb 58f 55f
11:48 15 22 mph 1018.8mb 58f 55f
11:42 17 21 mph 1018.8mb 58f 55f
11:36 13 18 mph 1018.9mb 58f 55f
11:30 14 21 mph 1018.8mb 57f 55f
11:24 15 20 mph 1018.9mb 57f 55f
11:18 14 18 mph 1018.8mb 57f 55f
11:12 16 21 mph 1018.8mb 57f 54f
11:06 16 18 mph 1018.8mb 57f 55f
11:00 11 18 mph 1018.8mb 57f 54f
10:54 13 20 mph 1018.8mb 57f 54f
10:48 13 18 mph 1018.9mb 57f 54f
10:42 14 21 mph 1018.9mb 57f 54f
10:36 16 23 mph 1018.9mb 57f 53f
10:30 16 21 mph 1018.8mb 57f 53f
10:24 15 22 mph 1018.8mb 57f 54f
10:18 15 21 mph 1018.9mb 57f 54f
10:12 16 22 mph 1018.9mb 57f 53f
10:06 14 20 mph 1018.9mb 57f 53f
10:00 11 16 mph 1018.9mb 57f 53f
9:54 14 20 mph 1018.9mb 57f 53f
9:48 14 20 mph 1018.9mb 57f 53f
9:42 14 23 mph 1019mb 57f 53f
9:36 15 18 mph 1019mb 57f 53f
9:30 14 20 mph 1019mb 57f 53f
9:24 16 21 mph 1019mb 57f 53f
9:18 15 23 mph 1018.9mb 57f 53f
9:12 11 17 mph 1019mb 56f 53f
9:06 14 18 mph 1018.9mb 56f 53f
9:00 13 16 mph 1018.9mb 56f 53f
8:54 10 15 mph 1018.9mb 56f 53f
8:48 13 18 mph 1018.9mb 56f 53f
8:42 14 18 mph 1018.8mb 56f 53f
8:36 14 20 mph 1018.8mb 56f 53f
8:30 13 17 mph 1018.8mb 56f -
8:24 14 20 mph 1018.8mb 56f -
8:18 13 18 mph 1018.8mb 56f 53f
8:12 13 17 mph 1018.9mb 56f 53f
8:06 14 18 mph 1018.9mb 56f 53f
8:00 11 16 mph 1018.9mb 56f 53f
7:54 10 18 mph 1018.9mb 56f 53f
7:48 13 18 mph 1018.9mb 56f 53f
7:42 13 20 mph 1018.9mb 56f 53f
7:36 14 18 mph 1018.9mb 56f 53f
7:30 15 22 mph 1018.9mb 56f 53f
7:24 14 18 mph 1018.9mb 56f 53f
7:18 13 17 mph 1018.9mb 56f 54f
7:12 11 17 mph 1018.8mb 56f 54f
7:06 11 17 mph 1018.9mb 56f 54f
7:00 14 17 mph 1018.8mb 56f 54f
6:54 10 17 mph 1018.8mb 56f 54f
6:48 10 16 mph 1018.9mb 56f 54f
6:42 13 18 mph 1018.9mb 56f 54f
6:36 15 21 mph 1018.9mb 56f 53f
6:30 15 20 mph 1018.9mb 56f 53f
6:24 14 21 mph 1018.9mb 56f 54f
6:18 13 20 mph 1018.9mb 56f 54f
6:12 14 20 mph 1018.9mb 56f 54f
6:06 13 17 mph 1018.9mb 56f 54f
6:00 11 17 mph 1019mb 56f 54f
5:54 13 17 mph 1019mb 56f 54f
5:48 10 16 mph 1019.1mb 56f 54f
5:42 14 18 mph 1019.1mb 56f 54f
5:36 13 17 mph 1019mb 56f 54f
5:30 13 17 mph 1019.1mb 56f 54f
5:24 11 15 mph 1019.1mb 56f 53f
5:18 11 15 mph 1019.1mb 56f 53f
5:12 13 15 mph 1019.2mb 56f 53f
5:06 13 16 mph 1019.2mb 56f 53f
5:00 13 17 mph 1019.2mb 56f 53f
4:54 9 16 mph 1019.2mb 56f 53f
4:48 14 17 mph 1019.3mb 56f 53f
4:42 14 17 mph 1019.2mb 56f 52f
4:36 13 17 mph 1019.2mb 56f 52f
4:30 13 18 mph 1019.2mb 56f 53f
4:24 15 17 mph 1019.2mb 56f 54f
4:18 15 18 mph 1019.2mb 56f 53f
4:12 13 16 mph 1019.2mb 56f 53f
4:06 14 17 mph 1019.3mb 57f 53f
4:00 14 17 mph 1019.4mb 56f 53f
3:54 14 16 mph 1019.4mb 56f 52f
3:48 13 17 mph 1019.4mb 57f 53f
3:42 13 17 mph 1019.5mb 57f 52f
3:36 11 14 mph 1019.6mb 57f 53f
3:30 9 14 mph 1019.7mb 57f 53f
3:24 10 14 mph 1019.8mb 57f 53f
3:18 9 14 mph - 57f 53f
3:12 10 14 mph - 57f 53f
3:06 11 15 mph - 57f 52f
3:00 10 15 mph 1020.1mb 57f 52f
2:54 11 16 mph 1020.1mb 57f 52f
2:48 13 20 mph 1020.1mb 57f 52f
2:42 13 18 mph 1020.1mb 57f 53f
2:36 10 14 mph 1020.1mb 58f 55f
2:30 9 13 mph 1020.2mb 58f 55f
2:24 10 14 mph 1020.3mb 58f 54f
2:18 10 13 mph 1020.3mb 58f 54f
2:12 9 11 mph 1020.4mb 58f 54f
2:06 9 11 mph 1020.5mb 58f 54f
2:00 8 14 mph 1020.6mb 58f 54f
1:54 9 13 mph 1020.7mb 58f 54f
1:48 9 13 mph 1020.7mb 58f 54f
1:42 10 14 mph 1020.8mb 58f 54f
1:36 8 11 mph 1020.9mb 58f 54f
1:30 9 13 mph 1020.9mb 58f 54f
1:24 8 14 mph 1021mb 58f 54f
1:18 9 14 mph 1021.1mb 58f 54f
1:12 9 11 mph 1021.1mb 58f 54f
1:06 8 11 mph 1021.1mb 58f 54f
1:00 9 13 mph 1021.2mb 58f 54f
12:54 9 11 mph 1021.3mb 58f 54f
12:48 8 11 mph 1021.3mb 58f 54f
12:42 9 11 mph 1021.4mb 58f 54f
12:36 7 11 mph 1021.5mb 58f 54f
12:30 8 13 mph 1021.6mb 58f 54f
12:24 8 11 mph 1021.6mb 58f 54f
12:18 8 11 mph 1021.6mb 58f 54f
12:12 7 10 mph 1021.6mb 58f 54f
12:06 8 10 mph 1021.6mb 58f 54f
12:00 7 9 mph 1021.7mb 58f 54f
ven. 05/27 11:54 7 10 mph 1021.6mb 58f 54f
11:48 6 8 mph 1021.6mb 59f 54f
11:42 8 9 mph 1021.7mb 59f 54f
11:36 7 9 mph 1021.7mb 59f 54f
11:30 7 9 mph 1021.7mb 59f 54f
11:24 7 9 mph 1021.8mb 59f 54f
11:18  -  mph 1021.8mb 59f 54f
11:12  -  mph 1021.8mb 59f 54f
11:06  -  mph 1021.8mb 59f 54f
11:00  -  mph 1021.9mb 58f 54f
10:54  -  mph 1021.9mb 58f 54f
10:48 6 8 mph 1022mb 58f 54f
10:42 5 9 mph 1022mb 58f 54f
10:36 6 9 mph 1022mb 58f 54f
10:30 7 10 mph 1022mb 58f 54f
10:24 8 10 mph 1022mb 58f 54f
10:18 8 10 mph 1022mb 58f 54f
10:12 7 10 mph 1022mb 58f 54f
10:06 8 9 mph 1022.1mb 58f 54f
10:00 6 9 mph 1022.1mb 58f 54f
9:54 7 9 mph 1022.1mb 58f 54f
9:48 7 9 mph 1022mb 58f 54f
9:42 7 9 mph 1022.1mb 58f 54f
9:36 7 9 mph 1022.1mb 58f 53f
9:30 6 7 mph 1022.1mb 58f 53f
9:24 6 8 mph 1022.1mb 57f 53f
9:18 7 8 mph 1022.1mb 58f 53f
9:12 6 7 mph 1022.1mb 58f 53f
9:06 6 9 mph 1022.1mb 58f 53f
9:00 7 9 mph 1022.1mb 58f 54f
8:54 5 6 mph 1022mb 58f 54f
8:48  -  mph 1022mb 57f 53f
8:42  -  mph 1022.1mb 58f 54f
8:36  -  mph 1022.1mb 58f 54f
8:30 6 8 mph 1022.1mb 58f 53f
8:24 6 9 mph 1022.2mb 58f 53f
8:18 7 9 mph 1022.1mb 58f 54f
8:12  -  mph 1022.2mb 58f -
8:06  -  mph 1022.2mb 58f -
8:00 8 9 mph 1022.2mb 57f -
7:54 8 10 mph 1022.2mb 57f -
7:48  -  mph - 56f -
7:42  -  mph - 56f -
7:36  -  mph - 56f -
7:30  -  mph 1022.1mb - -
7:24  -  mph 1022.2mb - -
7:18  -  mph 1022.4mb - -
7:12  -  mph 1022.4mb - 54f
7:06  -  mph 1022.5mb - 54f
7:00 8 11 mph 1022.5mb - -
6:54 9 13 mph 1022.5mb - -
6:48  -  mph 1022.4mb 56f -
6:42  -  mph 1022.5mb 56f -
6:36  -  mph 1022.5mb 56f -
6:30 13 15 mph 1022.5mb 56f -
6:24 9 13 mph 1022.5mb 56f -
6:18  -  mph 1022.5mb 56f -
6:12  -  mph 1022.5mb 56f -
6:06  -  mph 1022.5mb 56f -
6:00 13 16 mph 1022.6mb - -
5:54 11 15 mph 1022.6mb - -
5:48  -  mph 1022.6mb 56f -
5:42  -  mph 1022.6mb 57f -
5:36  -  mph 1022.6mb 57f -
5:30 6 13 mph 1022.6mb 57f -
5:24 8 14 mph 1022.7mb 57f -
5:18  -  mph - 57f 55f
5:12  -  mph - 57f 55f
5:06  -  mph - 57f 55f
5:00  -  mph 1022.7mb 57f -
4:54  -  mph 1022.8mb 57f -
4:48  -  mph 1022.9mb 57f -
4:42  -  mph 1022.9mb 58f -
4:36  -  mph 1023mb 58f -
4:30 8 11 mph 1023mb 57f -
4:24 9 13 mph 1023mb 57f -
4:18  -  mph 1023mb 58f 54f
4:12  -  mph 1023mb 57f 54f
4:06  -  mph 1023mb 58f 55f
4:00 10 17 mph 1023mb - -
3:54 10 16 mph 1023.1mb - -
3:48  -  mph 1023.1mb - -
3:42  -  mph 1023.1mb - -
3:36  -  mph 1023.2mb - -
3:30 14 16 mph 1023.2mb 58f -
3:24 10 16 mph 1023.1mb 58f -
3:18  -  mph 1023.1mb 58f -
3:12  -  mph 1023.1mb 58f -
3:06  -  mph 1023.1mb 58f -
3:00  -  mph 1023.1mb - 55f
2:54  -  mph 1023.2mb - 55f
2:48  -  mph 1023.1mb 58f 55f
2:42  -  mph 1023.1mb 58f 56f
2:36  -  mph 1023.1mb 58f 55f
2:30 11 15 mph 1023mb 58f 55f
2:24 11 17 mph 1023mb 58f 54f
2:18 13 18 mph 1023.1mb 58f 55f
2:12 11 18 mph 1023.1mb 58f 56f
2:06 10 17 mph 1023.1mb 59f 55f
2:00 13 17 mph 1023.1mb 59f 55f
1:54 9 14 mph 1023.2mb 59f 54f
1:48 9 14 mph 1023.2mb 59f 54f
1:42 9 14 mph 1023.2mb 59f 54f
1:36 13 16 mph 1023.2mb 59f 53f
1:30 15 18 mph 1023.2mb 59f 53f
1:24 15 21 mph 1023.2mb 58f 53f
1:18 15 18 mph 1023.2mb 58f 54f
1:12 15 20 mph 1023.2mb 58f 54f
1:06 15 18 mph 1023.2mb 58f 54f
1:00 14 18 mph 1023.2mb 58f 55f
12:54 14 20 mph 1023.2mb 58f 54f
12:48 14 20 mph 1023.2mb 59f 54f
12:42 15 20 mph 1023.2mb 59f 54f
12:36 14 16 mph 1023.1mb 59f 55f
12:30 11 14 mph 1023.1mb 59f 54f
12:24 10 16 mph 1023.1mb 59f 55f
12:18 10 14 mph 1023.2mb 59f 54f
12:12 9 14 mph 1023.2mb 59f 54f
12:06 10 13 mph 1023.2mb 58f 54f
12:00 6 9 mph 1023.2mb 59f 54f
11:54 8 10 mph 1023.2mb 59f 53f
11:48 7 11 mph 1023.2mb 58f 53f
11:42 9 13 mph 1023.2mb 58f 53f
11:36 9 13 mph 1023.2mb 58f 53f
11:30 11 15 mph 1023.2mb 58f 53f
11:24 14 16 mph 1023.1mb 58f 53f
11:18 13 17 mph 1023.1mb 58f 53f
11:12 13 16 mph 1023.1mb 58f 53f
11:06 14 17 mph 1023mb 58f 53f
11:00 15 18 mph 1023mb 58f 53f
10:54 14 18 mph 1022.9mb 58f 54f
10:48 11 15 mph 1022.9mb 58f 54f
10:42 11 14 mph 1022.8mb 58f 53f
10:36 11 14 mph 1022.8mb 58f 53f
10:30 9 11 mph 1022.8mb 58f 54f
10:24 7 9 mph 1022.8mb 57f 53f
10:18 7 9 mph 1022.9mb 57f 52f
10:12 7 11 mph 1022.9mb 57f 52f
10:06 10 11 mph 1022.9mb 57f 52f
10:00 10 14 mph 1022.9mb 56f 53f
9:54 11 14 mph 1022.9mb 56f 53f
9:48 6 9 mph 1022.9mb 56f 53f
9:42 9 13 mph 1022.8mb 56f 53f
9:36 3 6 mph 1022.7mb 56f 54f
9:30 7 10 mph 1022.7mb 57f 54f
9:24 9 13 mph 1022.7mb 57f 54f
9:18 7 9 mph 1022.7mb 57f 54f
9:12 8 13 mph 1022.7mb 57f 53f
9:06 7 10 mph 1022.7mb 56f 53f
9:00 10 14 mph 1022.7mb 56f 53f
8:54 8 11 mph 1022.7mb 57f 53f
8:48 5 10 mph 1022.8mb 57f 53f
8:42 8 11 mph 1022.8mb 57f 53f
8:36 8 11 mph 1022.8mb 57f 53f
8:30 9 11 mph 1022.8mb 57f 52f
8:24 6 8 mph 1022.8mb 57f 52f
8:18 7 9 mph 1022.8mb 57f 52f
8:12 6 7 mph 1022.8mb 57f 52f
8:06 5 9 mph 1022.9mb 56f 52f
8:00 8 10 mph 1022.9mb 56f 52f
7:54 10 14 mph 1022.8mb 57f 52f
7:48 10 14 mph 1022.7mb 57f 52f
7:42 3 6 mph 1022.8mb 56f 51f
7:36 2
mph
1022.7mb 56f 51f
7:30 1
mph
1022.7mb 56f 51f
7:24 1
mph
1022.7mb 56f 51f
7:18  -  1 mph 1022.7mb 56f 51f
7:12  -  1 mph 1022.6mb 56f 51f
7:06  -  2 mph 1022.6mb 56f 50f
7:00 1 2 mph 1022.6mb 56f 50f
6:54 2
mph
1022.5mb 56f 50f
6:48 1 2 mph 1022.5mb 56f 50f
6:42 2 3 mph 1022.5mb 56f 51f
6:36 3 5 mph 1022.5mb 57f 50f
6:30 2 3 mph 1022.4mb 57f 50f
6:24 1 2 mph 1022.3mb 57f 50f
6:18 2
mph
1022.4mb 57f 49f
6:12 1 3 mph 1022.4mb 57f 50f
6:06 3 5 mph 1022.4mb 56f 49f
6:00 3 5 mph 1022.4mb 56f 50f
5:54 1 2 mph 1022.4mb 56f 50f
5:48  -  2 mph 1022.4mb 56f 49f
5:42 2
mph
1022.4mb 56f 49f
5:36 1 2 mph 1022.4mb 56f 49f
5:30 1 2 mph 1022.3mb 56f 49f
5:24 2 6 mph 1022.3mb 56f 50f
5:18 5 6 mph 1022.3mb 56f 50f
5:12 5 6 mph 1022.3mb 56f 50f
5:06 6 7 mph 1022.3mb 56f 50f
5:00 6 8 mph 1022.3mb 56f 50f
4:54 7 10 mph 1022.2mb 56f 50f
4:48 9 11 mph 1022.3mb 56f 50f
4:42 10 11 mph 1022.2mb 56f 50f
4:36 10 14 mph 1022.2mb 56f 50f
4:30 13 21 mph 1022.3mb 56f 50f
4:24 14 18 mph 1022.4mb 56f 51f
4:18 7 9 mph 1022.3mb 56f 52f
4:12 7 9 mph 1022.2mb 56f 51f
4:06 7 8 mph 1022.3mb 56f 51f
4:00 7 8 mph 1022.4mb 56f 51f
3:54 7 8 mph 1022.4mb 56f 52f
3:48 7 9 mph 1022.4mb 57f 51f
3:42 8 9 mph 1022.4mb 57f 51f
3:36 8 9 mph 1022.4mb 57f 51f
3:30 8 10 mph 1022.4mb 57f 51f
3:24 7 9 mph 1022.5mb 57f 51f
3:18 8 10 mph 1022.5mb 57f 51f
3:12 7 8 mph 1022.6mb 57f 51f
3:06 7 8 mph 1022.6mb 57f 50f
3:00 7 10 mph 1022.6mb 57f 51f
2:54 9 11 mph 1022.6mb 57f 51f
2:48 10 13 mph 1022.6mb 57f 51f
2:42 11 15 mph 1022.6mb 57f 51f
2:36 13 17 mph 1022.6mb 57f 51f
2:30 14 17 mph 1022.6mb 57f 51f
2:24 15 17 mph 1022.6mb 58f 52f
2:18 15 22 mph 1022.6mb 57f 52f
2:12 8 10 mph 1022.6mb 58f 52f
2:06 8 10 mph 1022.7mb 58f 52f
2:00 7 11 mph 1022.8mb 57f 52f
1:54 9 13 mph 1022.8mb 58f 52f
1:48 9 13 mph 1022.8mb 58f 52f
1:42 8 11 mph 1022.9mb 58f 52f
1:36 9 11 mph 1022.9mb 58f 53f
1:30 7 9 mph 1022.9mb 58f 52f
1:24 6 8 mph 1022.9mb 58f 52f
1:18 6 7 mph 1022.9mb 58f 52f
1:12 5 7 mph 1022.9mb 58f 52f
1:06 5 6 mph 1022.9mb 58f 51f
1:00 6 7 mph 1022.9mb 58f 51f
12:54 6 9 mph 1023mb 58f 52f
12:48 7 11 mph 1023.1mb 58f 52f
12:42 10 14 mph 1023.1mb 58f 52f
12:36 8 10 mph 1023.2mb 58f 52f
12:30 8 11 mph 1023.1mb 58f 52f
12:24 9 13 mph 1023.2mb 58f 53f
12:18 9 15 mph 1023.2mb 58f 53f
12:12 16 18 mph 1023.2mb 58f 53f
12:06 16 22 mph 1023.3mb 58f 53f
12:00 13 16 mph 1023.2mb 58f 53f
jeu. 05/26 11:54 11 15 mph 1023.3mb 58f 53f
11:48 13 16 mph 1023.3mb 58f 53f
11:42 10 13 mph 1023.3mb 58f 53f
11:36 9 10 mph 1023.3mb 58f 53f
11:30 10 11 mph 1023.3mb 58f 53f
11:24 8 13 mph 1023.4mb 58f 53f
11:18 9 14 mph 1023.4mb 58f 53f
11:12 13 16 mph 1023.4mb 58f 53f
11:06 11 14 mph 1023.5mb 58f 53f
11:00  -  mph 1023.5mb 58f 53f
10:54  -  mph 1023.6mb 58f 53f
10:48  -  mph 1023.6mb 58f 53f
10:42  -  mph 1023.6mb 58f 53f
10:36  -  mph 1023.6mb 58f 53f
10:30 9 14 mph 1023.6mb 58f 53f
10:24 11 16 mph 1023.6mb 58f 53f
10:18 11 16 mph 1023.6mb 58f 54f
10:12 10 14 mph 1023.6mb 58f 54f
10:06 13 16 mph 1023.7mb 58f 54f
10:00 11 16 mph 1023.7mb 58f 54f
9:54 9 14 mph 1023.6mb 58f 53f
9:48 11 15 mph 1023.5mb 58f 53f
9:42 11 14 mph 1023.5mb 58f 53f
9:36 11 16 mph 1023.4mb 58f 53f
9:30 10 13 mph 1023.4mb 58f 53f
9:24 9 11 mph 1023.4mb 58f 53f
9:18 10 13 mph 1023.3mb 58f 53f
9:12 8 11 mph 1023.3mb 58f 53f
9:06 9 15 mph 1023.2mb 58f 53f
9:00 10 15 mph 1023.2mb 58f 53f
8:54 8 10 mph 1023.2mb 58f 54f
8:48  -  mph 1023.3mb 58f 54f
8:42  -  mph 1023.4mb 58f 54f
8:36  -  mph 1023.4mb 58f 54f
8:30 11 14 mph 1023.4mb 58f 54f
8:24 8 13 mph 1023.4mb 58f 54f
8:18  -  mph 1023.4mb 58f -
8:12  -  mph 1023.4mb 58f -
8:06  -  mph 1023.4mb 58f -
8:00  -  mph 1023.4mb 58f -
7:54  -  mph 1023.4mb 58f -
7:48 9 13 mph 1023.5mb - 54f
7:42 10 14 mph 1023.5mb - 54f
7:36 10 13 mph 1023.5mb - 54f
7:30 10 13 mph 1023.4mb - -
7:24 10 13 mph 1023.5mb - -
7:18  -  mph 1023.5mb 58f 54f
7:12  -  mph 1023.4mb 58f 54f
7:06  -  mph 1023.4mb 58f 54f
7:00  -  mph 1023.4mb - -
6:54  -  mph 1023.4mb - -
6:48  -  mph 1023.5mb - -
6:42  -  mph 1023.6mb - -
6:36  -  mph 1023.6mb - -
6:30 10 13 mph 1023.6mb - -
6:24 13 15 mph 1023.6mb - -
6:18  -  mph 1023.6mb 57f 54f
6:12  -  mph 1023.6mb 56f 54f
6:06  -  mph 1023.7mb 56f 53f
6:00  -  mph 1023.8mb - -
5:54  -  mph 1023.8mb - -
5:48  -  mph - - 53f
5:42  -  mph - - 53f
5:36  -  mph - - 53f
5:30 13 18 mph 1024.1mb 56f -
5:24 17 22 mph 1024.1mb 56f -
5:18  -  mph - 56f 52f
5:12  -  mph - 57f 52f
5:06  -  mph - 57f 53f
5:00  -  mph 1024.1mb - -
4:54  -  mph 1024mb - -
4:48  -  mph - 57f -
4:42  -  mph - 57f -
4:36  -  mph - 58f -
4:30 16 21 mph 1024mb 58f -
4:24 13 17 mph 1024mb 58f -
4:18  -  mph - 58f 54f
4:12  -  mph - 58f 54f
4:06  -  mph - 58f 54f
4:00 8 10 mph 1024.3mb - -
3:54 8 15 mph 1024.3mb - -
3:48  -  mph - 58f -
3:42  -  mph - 58f -
3:36  -  mph - 58f -
3:30 8 14 mph 1024.4mb 58f -
3:24 10 14 mph 1024.4mb 58f -
3:18  -  mph 1024.5mb 58f 53f
3:12  -  mph 1024.4mb 59f 54f
3:06  -  mph 1024.4mb 59f 54f
3:00 9 13 mph 1024.4mb 58f -
2:54 7 10 mph 1024.4mb 59f -
2:48  -  mph - 59f 53f
2:42  -  mph - 58f 53f
2:36  -  mph - 58f 53f
2:30 13 15 mph 1024.5mb 59f 53f
2:24 10 14 mph 1024.4mb 59f 54f
2:18 10 14 mph 1024.4mb 59f 54f
2:12 10 15 mph 1024.4mb 59f 54f
2:06 11 14 mph 1024.4mb 58f 53f
2:00 10 13 mph 1024.4mb 58f 54f
1:54 10 14 mph 1024.4mb 58f 54f
1:48 11 15 mph 1024.5mb 58f 54f
1:42 9 15 mph 1024.5mb 59f 54f
1:36 13 17 mph 1024.5mb 59f 54f
1:30 13 16 mph 1024.4mb 59f 54f
1:24 10 20 mph 1024.4mb 59f 54f
1:18 11 16 mph 1024.5mb 59f 53f
1:12 13 18 mph 1024.5mb 59f 53f
1:06 9 13 mph 1024.5mb 59f 53f
1:00 9 13 mph 1024.5mb 59f 53f
12:54 13 15 mph 1024.5mb 59f 52f
12:48 14 18 mph 1024.6mb 59f 52f
12:42 16 18 mph 1024.5mb 59f 51f
12:36 15 22 mph 1024.4mb 59f 52f
12:30 17 21 mph 1024.3mb 59f 53f
12:24 16 18 mph 1024.3mb 59f 54f
12:18 17 21 mph 1024.3mb 59f 54f
12:12 17 20 mph 1024.3mb 59f 54f
12:06 16 23 mph 1024.2mb 59f 55f
12:00 14 21 mph 1024.2mb 59f 55f
11:54 16 20 mph 1024.1mb 59f 55f
11:48 14 18 mph 1024.1mb 59f 55f
11:42 13 15 mph 1024.1mb 59f 55f
11:36 11 14 mph 1024.1mb 59f 55f
11:30 11 17 mph 1024.2mb 59f 55f
11:24 13 16 mph 1024.2mb 59f 55f
11:18 11 16 mph 1024.2mb 59f -
11:12 11 17 mph 1024.2mb 59f 55f
11:06 11 15 mph 1024.2mb 59f 55f
11:00 10 13 mph 1024.2mb 59f 54f
10:54 10 13 mph 1024.1mb 59f 54f
10:48  -  mph 1024.1mb 58f 53f
10:42  -  mph 1024.1mb 58f 53f
10:36  -  mph 1024.2mb 58f 53f
10:30 11 16 mph 1024.2mb 58f 53f
10:24 15 17 mph 1024.1mb 58f 53f
10:18 15 17 mph 1024mb 58f 53f
10:12 14 16 mph 1023.9mb 58f 54f
10:06 10 13 mph 1024mb 58f 55f
10:00 10 15 mph 1023.9mb 58f 55f
9:54 10 15 mph 1024mb 58f 55f
9:48 10 15 mph 1024mb 58f 54f
9:42 15 20 mph 1024mb 58f 54f
9:36 10 13 mph 1023.9mb 58f 55f
9:30 8 11 mph 1023.9mb 58f 55f
9:24 9 11 mph 1023.9mb 58f 55f
9:18 11 14 mph 1023.8mb 58f 54f
9:12 10 13 mph 1023.9mb 58f 55f
9:06 13 16 mph 1023.8mb 58f 54f
9:00 10 15 mph 1023.8mb 58f 54f
8:54 13 16 mph 1023.8mb 58f 54f
8:48 11 16 mph 1023.8mb 58f 54f
8:42 13 15 mph 1023.8mb 58f 54f
8:36 13 15 mph 1023.8mb 58f 54f
8:30 11 15 mph 1023.8mb 58f 54f
8:24 9 11 mph 1023.7mb 58f 54f
8:18 6 8 mph 1023.7mb 58f 54f
8:12 6 7 mph 1023.7mb 58f 54f
8:06 6 8 mph 1023.7mb 58f 54f
8:00 7 9 mph 1023.7mb 58f 54f
7:54 6 7 mph 1023.7mb 58f 54f
7:48 6 7 mph 1023.8mb 58f 53f
7:42 6 7 mph 1023.8mb 58f 53f
7:36 5 7 mph 1023.8mb 58f 53f
7:30 5 7 mph 1023.8mb 58f 53f
7:24 6 8 mph 1023.8mb 58f 53f
7:18 6 7 mph 1023.8mb 58f 52f
7:12 5 6 mph 1023.8mb 58f 52f